OEO weather

L O Simenstad Municipal Airport
Osceola, Wisconsin, United States

Public forecast

Using degrees Fahrenheit for public forecast. Weather courtesy of forecast.io.

Current aviation weather report (METAR) for L O Simenstad Municipal Airport

Retrieved 2020/02/24 02:15 UTC (15 minutes ago):

KOEO 240215Z AUTO 25008KT 10SM CLR 01/M03 A2998 RMK AO2 T00141032

Closest aviation forecast (TAF) to L O Simenstad Municipal Airport

Closest forecast is New Richmond Regional Airport, 11.7 nm (21.6 km) SE. Retrieved 2020-02-24 00:22 UTC (2 hours ago):

TAF KRNH 232320Z 2400/2424 29006KT P6SM FEW250 FM241100 VRB03KT P6SM VCFG SCT250 FM241600 06005KT P6SM BKN150